sensor_id;sensor_type;location;lat;lon;timestamp;P1;durP1;ratioP1;P2;durP2;ratioP2
27889;SDS011;15238;49.082;9.102;2023-01-06T00:01:05;4.10;;;2.25;;
27889;SDS011;15238;49.082;9.102;2023-01-06T00:03:07;6.85;;;2.75;;
27889;SDS011;15238;49.082;9.102;2023-01-06T00:05:09;6.05;;;2.40;;
27889;SDS011;15238;49.082;9.102;2023-01-06T00:07:10;6.15;;;2.50;;
27889;SDS011;15238;49.082;9.102;2023-01-06T00:09:10;4.00;;;2.10;;
27889;SDS011;15238;49.082;9.102;2023-01-06T00:11:12;9.60;;;4.05;;
27889;SDS011;15238;49.082;9.102;2023-01-06T00:13:13;4.20;;;1.83;;
27889;SDS011;15238;49.082;9.102;2023-01-06T00:15:14;7.63;;;2.33;;
27889;SDS011;15238;49.082;9.102;2023-01-06T00:17:15;6.30;;;2.00;;
27889;SDS011;15238;49.082;9.102;2023-01-06T00:19:16;4.30;;;1.83;;
27889;SDS011;15238;49.082;9.102;2023-01-06T00:21:16;6.68;;;2.42;;
27889;SDS011;15238;49.082;9.102;2023-01-06T00:23:17;7.50;;;2.33;;
27889;SDS011;15238;49.082;9.102;2023-01-06T00:25:17;10.15;;;3.45;;
27889;SDS011;15238;49.082;9.102;2023-01-06T00:27:18;5.50;;;2.00;;
27889;SDS011;15238;49.082;9.102;2023-01-06T00:29:18;7.05;;;2.13;;
27889;SDS011;15238;49.082;9.102;2023-01-06T00:31:19;6.15;;;2.00;;
27889;SDS011;15238;49.082;9.102;2023-01-06T00:33:19;6.32;;;1.70;;
27889;SDS011;15238;49.082;9.102;2023-01-06T00:35:20;4.38;;;2.10;;
27889;SDS011;15238;49.082;9.102;2023-01-06T00:37:20;3.28;;;1.10;;
27889;SDS011;15238;49.082;9.102;2023-01-06T00:39:21;5.28;;;1.95;;
27889;SDS011;15238;49.082;9.102;2023-01-06T00:41:22;3.38;;;1.65;;
27889;SDS011;15238;49.082;9.102;2023-01-06T00:43:42;4.20;;;1.70;;
27889;SDS011;15238;49.082;9.102;2023-01-06T00:45:42;3.00;;;1.85;;
27889;SDS011;15238;49.082;9.102;2023-01-06T00:47:43;7.70;;;1.80;;
27889;SDS011;15238;49.082;9.102;2023-01-06T00:49:43;4.95;;;1.63;;
27889;SDS011;15238;49.082;9.102;2023-01-06T00:51:44;3.15;;;1.50;;
27889;SDS011;15238;49.082;9.102;2023-01-06T00:53:44;2.60;;;1.70;;
27889;SDS011;15238;49.082;9.102;2023-01-06T00:55:45;2.20;;;1.45;;
27889;SDS011;15238;49.082;9.102;2023-01-06T00:57:45;3.08;;;1.35;;
27889;SDS011;15238;49.082;9.102;2023-01-06T00:59:46;4.70;;;1.63;;
27889;SDS011;15238;49.082;9.102;2023-01-06T01:01:48;3.78;;;1.70;;
27889;SDS011;15238;49.082;9.102;2023-01-06T01:03:50;4.88;;;2.20;;
27889;SDS011;15238;49.082;9.102;2023-01-06T01:05:50;3.08;;;1.30;;
27889;SDS011;15238;49.082;9.102;2023-01-06T01:07:51;6.18;;;1.65;;
27889;SDS011;15238;49.082;9.102;2023-01-06T01:09:51;2.42;;;1.45;;
27889;SDS011;15238;49.082;9.102;2023-01-06T01:11:52;3.58;;;1.45;;
27889;SDS011;15238;49.082;9.102;2023-01-06T01:14:12;5.10;;;1.50;;
27889;SDS011;15238;49.082;9.102;2023-01-06T01:16:14;2.38;;;1.42;;
27889;SDS011;15238;49.082;9.102;2023-01-06T01:18:14;3.42;;;1.45;;
27889;SDS011;15238;49.082;9.102;2023-01-06T01:20:15;3.30;;;1.25;;
27889;SDS011;15238;49.082;9.102;2023-01-06T01:22:15;3.20;;;1.58;;
27889;SDS011;15238;49.082;9.102;2023-01-06T01:24:16;3.25;;;1.60;;
27889;SDS011;15238;49.082;9.102;2023-01-06T01:26:18;5.75;;;3.40;;
27889;SDS011;15238;49.082;9.102;2023-01-06T01:28:18;6.25;;;2.80;;
27889;SDS011;15238;49.082;9.102;2023-01-06T01:30:19;5.18;;;2.30;;
27889;SDS011;15238;49.082;9.102;2023-01-06T01:32:22;4.57;;;2.30;;
27889;SDS011;15238;49.082;9.102;2023-01-06T01:34:22;3.97;;;1.90;;
27889;SDS011;15238;49.082;9.102;2023-01-06T01:36:23;7.30;;;2.65;;
27889;SDS011;15238;49.082;9.102;2023-01-06T01:38:24;3.75;;;1.98;;
27889;SDS011;15238;49.082;9.102;2023-01-06T01:40:25;5.00;;;2.22;;
27889;SDS011;15238;49.082;9.102;2023-01-06T01:42:26;6.68;;;3.00;;
27889;SDS011;15238;49.082;9.102;2023-01-06T01:46:46;3.85;;;2.30;;
27889;SDS011;15238;49.082;9.102;2023-01-06T01:48:46;4.30;;;2.40;;
27889;SDS011;15238;49.082;9.102;2023-01-06T01:50:49;4.05;;;2.40;;
27889;SDS011;15238;49.082;9.102;2023-01-06T01:52:53;4.68;;;2.28;;
27889;SDS011;15238;49.082;9.102;2023-01-06T01:54:57;5.50;;;2.50;;
27889;SDS011;15238;49.082;9.102;2023-01-06T01:56:59;6.38;;;3.15;;
27889;SDS011;15238;49.082;9.102;2023-01-06T01:59:05;7.20;;;2.80;;
27889;SDS011;15238;49.082;9.102;2023-01-06T02:01:10;5.75;;;2.38;;
27889;SDS011;15238;49.082;9.102;2023-01-06T02:03:12;5.10;;;2.20;;
27889;SDS011;15238;49.082;9.102;2023-01-06T02:05:15;3.08;;;1.80;;
27889;SDS011;15238;49.082;9.102;2023-01-06T02:07:18;3.97;;;1.92;;
27889;SDS011;15238;49.082;9.102;2023-01-06T02:09:21;4.03;;;1.67;;
27889;SDS011;15238;49.082;9.102;2023-01-06T02:11:27;8.30;;;3.08;;
27889;SDS011;15238;49.082;9.102;2023-01-06T02:13:34;6.57;;;2.53;;
27889;SDS011;15238;49.082;9.102;2023-01-06T02:15:38;8.18;;;2.60;;
27889;SDS011;15238;49.082;9.102;2023-01-06T02:30:22;3.38;;;1.60;;
27889;SDS011;15238;49.082;9.102;2023-01-06T02:40:20;4.47;;;1.50;;
27889;SDS011;15238;49.082;9.102;2023-01-06T02:43:24;1.50;;;1.10;;
27889;SDS011;15238;49.082;9.102;2023-01-06T02:45:16;2.45;;;0.88;;
27889;SDS011;15238;49.082;9.102;2023-01-06T02:50:01;3.13;;;1.30;;
27889;SDS011;15238;49.082;9.102;2023-01-06T02:54:41;2.42;;;1.55;;
27889;SDS011;15238;49.082;9.102;2023-01-06T02:57:05;5.18;;;1.90;;
27889;SDS011;15238;49.082;9.102;2023-01-06T02:59:36;4.03;;;1.70;;
27889;SDS011;15238;49.082;9.102;2023-01-06T03:01:41;4.18;;;1.58;;
27889;SDS011;15238;49.082;9.102;2023-01-06T03:03:46;3.50;;;1.10;;
27889;SDS011;15238;49.082;9.102;2023-01-06T03:05:51;2.15;;;1.13;;
27889;SDS011;15238;49.082;9.102;2023-01-06T03:07:56;1.52;;;0.80;;
27889;SDS011;15238;49.082;9.102;2023-01-06T03:10:01;1.23;;;0.60;;
27889;SDS011;15238;49.082;9.102;2023-01-06T03:12:06;1.50;;;0.60;;
27889;SDS011;15238;49.082;9.102;2023-01-06T03:14:25;1.67;;;0.73;;
27889;SDS011;15238;49.082;9.102;2023-01-06T03:16:29;0.98;;;0.40;;
27889;SDS011;15238;49.082;9.102;2023-01-06T03:18:30;1.52;;;0.57;;
27889;SDS011;15238;49.082;9.102;2023-01-06T03:20:31;1.77;;;0.30;;
27889;SDS011;15238;49.082;9.102;2023-01-06T03:22:32;1.20;;;0.40;;
27889;SDS011;15238;49.082;9.102;2023-01-06T03:24:37;1.63;;;0.50;;
27889;SDS011;15238;49.082;9.102;2023-01-06T03:26:38;1.25;;;0.60;;
27889;SDS011;15238;49.082;9.102;2023-01-06T03:28:40;1.40;;;0.52;;
27889;SDS011;15238;49.082;9.102;2023-01-06T03:33:31;0.73;;;0.40;;
27889;SDS011;15238;49.082;9.102;2023-01-06T03:38:06;2.42;;;0.50;;
27889;SDS011;15238;49.082;9.102;2023-01-06T03:40:56;1.70;;;0.50;;
27889;SDS011;15238;49.082;9.102;2023-01-06T03:47:45;1.08;;;0.50;;
27889;SDS011;15238;49.082;9.102;2023-01-06T03:50:01;0.70;;;0.50;;
27889;SDS011;15238;49.082;9.102;2023-01-06T03:52:11;1.15;;;0.60;;
27889;SDS011;15238;49.082;9.102;2023-01-06T03:56:41;0.60;;;0.50;;
27889;SDS011;15238;49.082;9.102;2023-01-06T03:58:57;2.08;;;1.08;;
27889;SDS011;15238;49.082;9.102;2023-01-06T04:01:02;1.45;;;0.57;;
27889;SDS011;15238;49.082;9.102;2023-01-06T04:03:06;3.03;;;0.77;;
27889;SDS011;15238;49.082;9.102;2023-01-06T04:05:12;1.20;;;0.65;;
27889;SDS011;15238;49.082;9.102;2023-01-06T04:07:23;1.40;;;0.65;;
27889;SDS011;15238;49.082;9.102;2023-01-06T04:09:24;1.13;;;0.75;;
27889;SDS011;15238;49.082;9.102;2023-01-06T04:11:24;1.05;;;0.65;;
27889;SDS011;15238;49.082;9.102;2023-01-06T04:13:43;0.65;;;0.63;;
27889;SDS011;15238;49.082;9.102;2023-01-06T04:15:44;2.05;;;0.60;;
27889;SDS011;15238;49.082;9.102;2023-01-06T04:17:45;2.63;;;1.00;;
27889;SDS011;15238;49.082;9.102;2023-01-06T04:19:46;1.63;;;0.50;;
27889;SDS011;15238;49.082;9.102;2023-01-06T04:21:46;0.50;;;0.47;;
27889;SDS011;15238;49.082;9.102;2023-01-06T04:23:47;0.88;;;0.60;;
27889;SDS011;15238;49.082;9.102;2023-01-06T04:25:47;0.90;;;0.50;;
27889;SDS011;15238;49.082;9.102;2023-01-06T04:27:48;4.72;;;0.68;;
27889;SDS011;15238;49.082;9.102;2023-01-06T04:29:49;1.92;;;0.60;;
27889;SDS011;15238;49.082;9.102;2023-01-06T04:31:49;2.65;;;0.50;;
27889;SDS011;15238;49.082;9.102;2023-01-06T04:33:50;2.35;;;0.57;;
27889;SDS011;15238;49.082;9.102;2023-01-06T04:35:51;3.25;;;0.60;;
27889;SDS011;15238;49.082;9.102;2023-01-06T04:37:51;0.57;;;0.55;;
27889;SDS011;15238;49.082;9.102;2023-01-06T04:39:52;0.88;;;0.68;;
27889;SDS011;15238;49.082;9.102;2023-01-06T04:41:52;0.82;;;0.68;;
27889;SDS011;15238;49.082;9.102;2023-01-06T04:43:53;1.02;;;0.55;;
27889;SDS011;15238;49.082;9.102;2023-01-06T04:45:56;1.67;;;0.50;;
27889;SDS011;15238;49.082;9.102;2023-01-06T04:47:57;1.17;;;0.65;;
27889;SDS011;15238;49.082;9.102;2023-01-06T04:49:58;1.65;;;0.50;;
27889;SDS011;15238;49.082;9.102;2023-01-06T04:51:58;1.60;;;0.70;;
27889;SDS011;15238;49.082;9.102;2023-01-06T04:53:59;0.95;;;0.55;;
27889;SDS011;15238;49.082;9.102;2023-01-06T04:56:03;0.50;;;0.47;;
27889;SDS011;15238;49.082;9.102;2023-01-06T04:58:06;0.80;;;0.52;;
27889;SDS011;15238;49.082;9.102;2023-01-06T05:00:07;0.95;;;0.63;;
27889;SDS011;15238;49.082;9.102;2023-01-06T05:02:08;3.00;;;0.50;;
27889;SDS011;15238;49.082;9.102;2023-01-06T05:04:08;1.05;;;0.50;;
27889;SDS011;15238;49.082;9.102;2023-01-06T05:06:10;0.60;;;0.40;;
27889;SDS011;15238;49.082;9.102;2023-01-06T05:08:11;1.48;;;0.50;;
27889;SDS011;15238;49.082;9.102;2023-01-06T05:10:11;0.93;;;0.55;;
27889;SDS011;15238;49.082;9.102;2023-01-06T05:12:12;0.73;;;0.50;;
27889;SDS011;15238;49.082;9.102;2023-01-06T05:14:12;1.17;;;0.60;;
27889;SDS011;15238;49.082;9.102;2023-01-06T05:16:22;1.40;;;0.40;;
27889;SDS011;15238;49.082;9.102;2023-01-06T05:18:25;2.22;;;0.60;;
27889;SDS011;15238;49.082;9.102;2023-01-06T05:20:25;0.50;;;0.50;;
27889;SDS011;15238;49.082;9.102;2023-01-06T05:22:26;1.17;;;0.80;;
27889;SDS011;15238;49.082;9.102;2023-01-06T05:24:26;0.88;;;0.60;;
27889;SDS011;15238;49.082;9.102;2023-01-06T05:26:27;0.98;;;0.50;;
27889;SDS011;15238;49.082;9.102;2023-01-06T05:28:28;1.52;;;0.70;;
27889;SDS011;15238;49.082;9.102;2023-01-06T05:30:29;1.67;;;0.82;;
27889;SDS011;15238;49.082;9.102;2023-01-06T05:32:29;1.30;;;0.75;;
27889;SDS011;15238;49.082;9.102;2023-01-06T05:34:30;1.58;;;0.95;;
27889;SDS011;15238;49.082;9.102;2023-01-06T05:36:30;1.13;;;0.90;;
27889;SDS011;15238;49.082;9.102;2023-01-06T05:38:31;0.82;;;0.77;;
27889;SDS011;15238;49.082;9.102;2023-01-06T05:40:33;0.93;;;0.82;;
27889;SDS011;15238;49.082;9.102;2023-01-06T05:42:34;0.85;;;0.75;;
27889;SDS011;15238;49.082;9.102;2023-01-06T05:44:34;1.00;;;0.80;;
27889;SDS011;15238;49.082;9.102;2023-01-06T05:46:35;0.70;;;0.63;;
27889;SDS011;15238;49.082;9.102;2023-01-06T05:48:35;1.13;;;0.85;;
27889;SDS011;15238;49.082;9.102;2023-01-06T05:50:36;1.90;;;0.70;;
27889;SDS011;15238;49.082;9.102;2023-01-06T05:52:37;1.00;;;0.70;;
27889;SDS011;15238;49.082;9.102;2023-01-06T05:54:37;2.17;;;0.98;;
27889;SDS011;15238;49.082;9.102;2023-01-06T05:56:39;1.35;;;0.90;;
27889;SDS011;15238;49.082;9.102;2023-01-06T05:58:39;1.30;;;0.90;;
27889;SDS011;15238;49.082;9.102;2023-01-06T06:00:43;3.72;;;0.80;;
27889;SDS011;15238;49.082;9.102;2023-01-06T06:02:44;1.25;;;0.60;;
27889;SDS011;15238;49.082;9.102;2023-01-06T06:04:44;1.05;;;0.75;;
27889;SDS011;15238;49.082;9.102;2023-01-06T06:06:45;1.20;;;0.70;;
27889;SDS011;15238;49.082;9.102;2023-01-06T06:08:46;3.80;;;1.10;;
27889;SDS011;15238;49.082;9.102;2023-01-06T06:10:47;0.90;;;0.80;;
27889;SDS011;15238;49.082;9.102;2023-01-06T06:12:49;1.40;;;1.30;;
27889;SDS011;15238;49.082;9.102;2023-01-06T06:14:50;3.67;;;2.40;;
27889;SDS011;15238;49.082;9.102;2023-01-06T06:16:51;4.57;;;2.40;;
27889;SDS011;15238;49.082;9.102;2023-01-06T06:18:53;2.10;;;1.90;;
27889;SDS011;15238;49.082;9.102;2023-01-06T06:21:00;3.05;;;1.38;;
27889;SDS011;15238;49.082;9.102;2023-01-06T06:23:03;3.30;;;1.35;;
27889;SDS011;15238;49.082;9.102;2023-01-06T06:25:05;1.23;;;1.10;;
27889;SDS011;15238;49.082;9.102;2023-01-06T06:27:06;2.13;;;1.00;;
27889;SDS011;15238;49.082;9.102;2023-01-06T06:29:06;1.83;;;1.20;;
27889;SDS011;15238;49.082;9.102;2023-01-06T06:31:11;2.22;;;1.10;;
27889;SDS011;15238;49.082;9.102;2023-01-06T06:33:21;2.30;;;1.50;;
27889;SDS011;15238;49.082;9.102;2023-01-06T06:35:21;3.80;;;1.20;;
27889;SDS011;15238;49.082;9.102;2023-01-06T06:37:22;2.10;;;1.40;;
27889;SDS011;15238;49.082;9.102;2023-01-06T06:39:22;1.70;;;1.38;;
27889;SDS011;15238;49.082;9.102;2023-01-06T06:41:23;1.30;;;0.85;;
27889;SDS011;15238;49.082;9.102;2023-01-06T06:43:24;2.90;;;1.40;;
27889;SDS011;15238;49.082;9.102;2023-01-06T06:45:25;1.58;;;0.82;;
27889;SDS011;15238;49.082;9.102;2023-01-06T06:47:25;1.33;;;0.90;;
27889;SDS011;15238;49.082;9.102;2023-01-06T06:49:26;3.65;;;0.93;;
27889;SDS011;15238;49.082;9.102;2023-01-06T06:51:28;0.98;;;0.90;;
27889;SDS011;15238;49.082;9.102;2023-01-06T06:53:29;1.90;;;1.17;;
27889;SDS011;15238;49.082;9.102;2023-01-06T06:55:32;2.20;;;0.88;;
27889;SDS011;15238;49.082;9.102;2023-01-06T06:57:32;2.38;;;0.88;;
27889;SDS011;15238;49.082;9.102;2023-01-06T06:59:33;2.05;;;0.90;;
27889;SDS011;15238;49.082;9.102;2023-01-06T07:01:33;0.88;;;0.88;;
27889;SDS011;15238;49.082;9.102;2023-01-06T07:03:34;1.98;;;0.80;;
27889;SDS011;15238;49.082;9.102;2023-01-06T07:05:35;1.30;;;0.82;;
27889;SDS011;15238;49.082;9.102;2023-01-06T07:07:35;1.42;;;0.90;;
27889;SDS011;15238;49.082;9.102;2023-01-06T07:09:36;2.85;;;1.00;;
27889;SDS011;15238;49.082;9.102;2023-01-06T07:11:36;1.02;;;0.75;;
27889;SDS011;15238;49.082;9.102;2023-01-06T07:13:37;3.25;;;0.80;;
27889;SDS011;15238;49.082;9.102;2023-01-06T07:15:37;1.35;;;0.70;;
27889;SDS011;15238;49.082;9.102;2023-01-06T07:17:38;1.35;;;0.70;;
27889;SDS011;15238;49.082;9.102;2023-01-06T07:19:40;1.60;;;0.80;;
27889;SDS011;15238;49.082;9.102;2023-01-06T07:21:41;2.70;;;0.65;;
27889;SDS011;15238;49.082;9.102;2023-01-06T07:23:41;3.33;;;0.70;;
27889;SDS011;15238;49.082;9.102;2023-01-06T07:25:42;1.02;;;0.47;;
27889;SDS011;15238;49.082;9.102;2023-01-06T07:27:42;3.05;;;0.70;;
27889;SDS011;15238;49.082;9.102;2023-01-06T07:29:43;2.50;;;0.68;;
27889;SDS011;15238;49.082;9.102;2023-01-06T07:31:43;3.65;;;0.60;;
27889;SDS011;15238;49.082;9.102;2023-01-06T07:33:44;2.00;;;1.00;;
27889;SDS011;15238;49.082;9.102;2023-01-06T07:35:44;10.40;;;5.60;;
27889;SDS011;15238;49.082;9.102;2023-01-06T07:37:45;8.43;;;5.53;;
27889;SDS011;15238;49.082;9.102;2023-01-06T07:39:46;3.92;;;2.10;;
27889;SDS011;15238;49.082;9.102;2023-01-06T07:41:46;7.72;;;3.65;;
27889;SDS011;15238;49.082;9.102;2023-01-06T07:43:47;13.00;;;6.00;;
27889;SDS011;15238;49.082;9.102;2023-01-06T07:45:47;4.72;;;2.63;;
27889;SDS011;15238;49.082;9.102;2023-01-06T07:47:48;14.90;;;7.15;;
27889;SDS011;15238;49.082;9.102;2023-01-06T07:49:49;3.97;;;2.13;;
27889;SDS011;15238;49.082;9.102;2023-01-06T07:51:49;3.95;;;2.20;;
27889;SDS011;15238;49.082;9.102;2023-01-06T07:53:50;4.82;;;2.40;;
27889;SDS011;15238;49.082;9.102;2023-01-06T07:55:51;3.40;;;1.80;;
27889;SDS011;15238;49.082;9.102;2023-01-06T07:57:52;3.05;;;1.33;;
27889;SDS011;15238;49.082;9.102;2023-01-06T07:59:53;1.45;;;0.98;;
27889;SDS011;15238;49.082;9.102;2023-01-06T08:01:54;1.08;;;0.98;;
27889;SDS011;15238;49.082;9.102;2023-01-06T08:03:55;2.38;;;0.93;;
27889;SDS011;15238;49.082;9.102;2023-01-06T08:05:56;3.58;;;1.13;;
27889;SDS011;15238;49.082;9.102;2023-01-06T08:07:56;3.13;;;0.80;;
27889;SDS011;15238;49.082;9.102;2023-01-06T08:09:57;1.20;;;0.70;;
27889;SDS011;15238;49.082;9.102;2023-01-06T08:11:57;1.15;;;0.93;;
27889;SDS011;15238;49.082;9.102;2023-01-06T08:13:58;2.05;;;1.00;;
27889;SDS011;15238;49.082;9.102;2023-01-06T08:16:02;0.75;;;0.60;;
27889;SDS011;15238;49.082;9.102;2023-01-06T08:18:04;2.50;;;0.80;;
27889;SDS011;15238;49.082;9.102;2023-01-06T08:20:05;1.17;;;0.60;;
27889;SDS011;15238;49.082;9.102;2023-01-06T08:22:06;1.85;;;0.80;;
27889;SDS011;15238;49.082;9.102;2023-01-06T08:24:06;4.32;;;2.17;;
27889;SDS011;15238;49.082;9.102;2023-01-06T08:26:09;2.35;;;1.25;;
27889;SDS011;15238;49.082;9.102;2023-01-06T08:28:14;2.15;;;0.70;;
27889;SDS011;15238;49.082;9.102;2023-01-06T08:30:14;1.98;;;0.68;;
27889;SDS011;15238;49.082;9.102;2023-01-06T08:32:20;4.50;;;1.25;;
27889;SDS011;15238;49.082;9.102;2023-01-06T08:34:21;2.53;;;1.45;;
27889;SDS011;15238;49.082;9.102;2023-01-06T08:36:22;2.03;;;0.63;;
27889;SDS011;15238;49.082;9.102;2023-01-06T08:38:23;1.70;;;0.65;;
27889;SDS011;15238;49.082;9.102;2023-01-06T08:40:24;2.47;;;1.20;;
27889;SDS011;15238;49.082;9.102;2023-01-06T08:42:24;1.20;;;0.80;;
27889;SDS011;15238;49.082;9.102;2023-01-06T08:44:25;1.40;;;0.88;;
27889;SDS011;15238;49.082;9.102;2023-01-06T08:46:25;2.72;;;0.77;;
27889;SDS011;15238;49.082;9.102;2023-01-06T08:48:26;3.25;;;1.38;;
27889;SDS011;15238;49.082;9.102;2023-01-06T08:50:27;6.32;;;4.10;;
27889;SDS011;15238;49.082;9.102;2023-01-06T08:52:28;4.35;;;2.58;;
27889;SDS011;15238;49.082;9.102;2023-01-06T08:54:28;6.35;;;3.05;;
27889;SDS011;15238;49.082;9.102;2023-01-06T08:56:30;3.70;;;1.00;;
27889;SDS011;15238;49.082;9.102;2023-01-06T08:58:31;2.25;;;1.42;;
27889;SDS011;15238;49.082;9.102;2023-01-06T09:00:31;0.95;;;0.45;;
27889;SDS011;15238;49.082;9.102;2023-01-06T09:02:32;1.92;;;0.77;;
27889;SDS011;15238;49.082;9.102;2023-01-06T09:04:33;2.60;;;1.20;;
27889;SDS011;15238;49.082;9.102;2023-01-06T09:06:34;2.83;;;0.90;;
27889;SDS011;15238;49.082;9.102;2023-01-06T09:08:35;1.30;;;0.60;;
27889;SDS011;15238;49.082;9.102;2023-01-06T09:10:37;1.88;;;0.80;;
27889;SDS011;15238;49.082;9.102;2023-01-06T09:12:38;1.20;;;0.85;;
27889;SDS011;15238;49.082;9.102;2023-01-06T09:14:38;1.40;;;0.60;;
27889;SDS011;15238;49.082;9.102;2023-01-06T09:16:39;2.55;;;0.90;;
27889;SDS011;15238;49.082;9.102;2023-01-06T09:18:40;2.65;;;0.90;;
27889;SDS011;15238;49.082;9.102;2023-01-06T09:20:47;1.25;;;0.77;;
27889;SDS011;15238;49.082;9.102;2023-01-06T09:22:48;3.40;;;0.60;;
27889;SDS011;15238;49.082;9.102;2023-01-06T09:24:49;2.28;;;0.90;;
27889;SDS011;15238;49.082;9.102;2023-01-06T09:26:49;1.50;;;1.15;;
27889;SDS011;15238;49.082;9.102;2023-01-06T09:28:50;1.80;;;0.93;;
27889;SDS011;15238;49.082;9.102;2023-01-06T09:30:50;3.13;;;0.70;;
27889;SDS011;15238;49.082;9.102;2023-01-06T09:32:51;1.10;;;0.60;;
27889;SDS011;15238;49.082;9.102;2023-01-06T09:34:51;1.77;;;0.95;;
27889;SDS011;15238;49.082;9.102;2023-01-06T09:36:52;2.13;;;0.90;;
27889;SDS011;15238;49.082;9.102;2023-01-06T09:38:52;2.85;;;1.08;;
27889;SDS011;15238;49.082;9.102;2023-01-06T09:41:03;1.98;;;0.68;;
27889;SDS011;15238;49.082;9.102;2023-01-06T09:43:14;1.10;;;0.80;;
27889;SDS011;15238;49.082;9.102;2023-01-06T09:45:35;1.40;;;0.63;;
27889;SDS011;15238;49.082;9.102;2023-01-06T09:47:49;0.68;;;0.50;;
27889;SDS011;15238;49.082;9.102;2023-01-06T09:49:58;2.63;;;0.60;;
27889;SDS011;15238;49.082;9.102;2023-01-06T09:52:17;1.95;;;0.90;;
27889;SDS011;15238;49.082;9.102;2023-01-06T09:54:31;0.75;;;0.52;;
27889;SDS011;15238;49.082;9.102;2023-01-06T09:56:34;1.05;;;0.70;;
27889;SDS011;15238;49.082;9.102;2023-01-06T09:58:38;2.42;;;0.60;;
27889;SDS011;15238;49.082;9.102;2023-01-06T10:00:46;3.10;;;0.60;;
27889;SDS011;15238;49.082;9.102;2023-01-06T10:02:48;1.98;;;0.50;;
27889;SDS011;15238;49.082;9.102;2023-01-06T10:04:49;1.05;;;0.93;;
27889;SDS011;15238;49.082;9.102;2023-01-06T10:07:03;1.75;;;0.40;;
27889;SDS011;15238;49.082;9.102;2023-01-06T10:09:20;0.88;;;0.40;;
27889;SDS011;15238;49.082;9.102;2023-01-06T10:11:54;1.70;;;0.50;;
27889;SDS011;15238;49.082;9.102;2023-01-06T10:21:49;0.65;;;0.43;;
27889;SDS011;15238;49.082;9.102;2023-01-06T10:26:05;1.05;;;0.57;;
27889;SDS011;15238;49.082;9.102;2023-01-06T10:28:17;1.13;;;0.40;;
27889;SDS011;15238;49.082;9.102;2023-01-06T10:30:26;0.90;;;0.38;;
27889;SDS011;15238;49.082;9.102;2023-01-06T10:32:32;0.93;;;0.40;;
27889;SDS011;15238;49.082;9.102;2023-01-06T10:34:35;1.48;;;0.40;;
27889;SDS011;15238;49.082;9.102;2023-01-06T10:36:43;1.55;;;0.40;;
27889;SDS011;15238;49.082;9.102;2023-01-06T10:38:46;1.25;;;0.40;;
27889;SDS011;15238;49.082;9.102;2023-01-06T10:40:49;1.30;;;0.30;;
27889;SDS011;15238;49.082;9.102;2023-01-06T10:42:53;0.40;;;0.17;;
27889;SDS011;15238;49.082;9.102;2023-01-06T10:45:02;0.40;;;0.30;;
27889;SDS011;15238;49.082;9.102;2023-01-06T10:47:03;1.25;;;0.20;;
27889;SDS011;15238;49.082;9.102;2023-01-06T10:49:05;3.58;;;1.90;;
27889;SDS011;15238;49.082;9.102;2023-01-06T10:51:25;0.30;;;0.20;;
27889;SDS011;15238;49.082;9.102;2023-01-06T10:53:34;0.95;;;0.30;;
27889;SDS011;15238;49.082;9.102;2023-01-06T10:57:39;0.90;;;0.13;;
27889;SDS011;15238;49.082;9.102;2023-01-06T11:02:08;0.65;;;0.20;;
27889;SDS011;15238;49.082;9.102;2023-01-06T11:04:22;0.57;;;0.30;;
27889;SDS011;15238;49.082;9.102;2023-01-06T11:06:26;0.82;;;0.30;;
27889;SDS011;15238;49.082;9.102;2023-01-06T11:08:28;0.77;;;0.30;;
27889;SDS011;15238;49.082;9.102;2023-01-06T11:10:30;0.82;;;0.47;;
27889;SDS011;15238;49.082;9.102;2023-01-06T11:12:37;0.50;;;0.15;;
27889;SDS011;15238;49.082;9.102;2023-01-06T11:14:38;0.63;;;0.28;;
27889;SDS011;15238;49.082;9.102;2023-01-06T11:16:39;0.38;;;0.10;;
27889;SDS011;15238;49.082;9.102;2023-01-06T11:18:39;0.95;;;0.30;;
27889;SDS011;15238;49.082;9.102;2023-01-06T11:20:40;0.35;;;0.20;;
27889;SDS011;15238;49.082;9.102;2023-01-06T11:22:41;0.10;;;0.00;;
27889;SDS011;15238;49.082;9.102;2023-01-06T11:24:52;0.30;;;0.10;;
27889;SDS011;15238;49.082;9.102;2023-01-06T11:26:57;0.50;;;0.10;;
27889;SDS011;15238;49.082;9.102;2023-01-06T11:28:59;0.30;;;0.10;;
27889;SDS011;15238;49.082;9.102;2023-01-06T11:33:22;0.20;;;0.00;;
27889;SDS011;15238;49.082;9.102;2023-01-06T11:35:25;0.40;;;0.17;;
27889;SDS011;15238;49.082;9.102;2023-01-06T11:37:32;1.13;;;0.10;;
27889;SDS011;15238;49.082;9.102;2023-01-06T11:39:37;0.43;;;0.05;;
27889;SDS011;15238;49.082;9.102;2023-01-06T11:41:43;0.38;;;0.00;;
27889;SDS011;15238;49.082;9.102;2023-01-06T11:43:46;1.20;;;0.20;;
27889;SDS011;15238;49.082;9.102;2023-01-06T11:45:47;0.17;;;0.10;;
27889;SDS011;15238;49.082;9.102;2023-01-06T11:47:53;0.20;;;0.10;;
27889;SDS011;15238;49.082;9.102;2023-01-06T11:49:55;0.65;;;0.08;;
27889;SDS011;15238;49.082;9.102;2023-01-06T11:52:01;1.15;;;0.20;;
27889;SDS011;15238;49.082;9.102;2023-01-06T11:54:15;0.30;;;0.20;;
27889;SDS011;15238;49.082;9.102;2023-01-06T11:56:33;1.08;;;0.30;;
27889;SDS011;15238;49.082;9.102;2023-01-06T12:01:01;0.35;;;0.10;;
27889;SDS011;15238;49.082;9.102;2023-01-06T12:03:15;0.20;;;0.20;;
27889;SDS011;15238;49.082;9.102;2023-01-06T12:07:59;0.85;;;0.10;;
27889;SDS011;15238;49.082;9.102;2023-01-06T12:10:07;0.30;;;0.10;;
27889;SDS011;15238;49.082;9.102;2023-01-06T12:12:19;1.65;;;0.25;;
27889;SDS011;15238;49.082;9.102;2023-01-06T12:14:23;1.25;;;0.38;;
27889;SDS011;15238;49.082;9.102;2023-01-06T12:18:40;0.73;;;0.10;;
27889;SDS011;15238;49.082;9.102;2023-01-06T12:20:43;0.20;;;0.20;;
27889;SDS011;15238;49.082;9.102;2023-01-06T12:22:48;1.13;;;0.20;;
27889;SDS011;15238;49.082;9.102;2023-01-06T12:25:05;0.60;;;0.30;;
27889;SDS011;15238;49.082;9.102;2023-01-06T12:27:33;0.47;;;0.47;;
27889;SDS011;15238;49.082;9.102;2023-01-06T12:29:45;0.57;;;0.43;;
27889;SDS011;15238;49.082;9.102;2023-01-06T12:32:07;1.05;;;0.40;;
27889;SDS011;15238;49.082;9.102;2023-01-06T12:36:43;0.10;;;0.10;;
27889;SDS011;15238;49.082;9.102;2023-01-06T12:38:56;0.40;;;0.30;;
27889;SDS011;15238;49.082;9.102;2023-01-06T12:41:10;0.30;;;0.20;;
27889;SDS011;15238;49.082;9.102;2023-01-06T12:43:17;0.20;;;0.20;;
27889;SDS011;15238;49.082;9.102;2023-01-06T12:48:02;1.17;;;0.90;;
27889;SDS011;15238;49.082;9.102;2023-01-06T12:52:36;0.77;;;0.35;;
27889;SDS011;15238;49.082;9.102;2023-01-06T12:54:49;1.20;;;0.20;;
27889;SDS011;15238;49.082;9.102;2023-01-06T12:56:58;1.55;;;0.30;;
27889;SDS011;15238;49.082;9.102;2023-01-06T13:01:14;1.08;;;0.30;;
27889;SDS011;15238;49.082;9.102;2023-01-06T13:03:34;0.98;;;0.20;;
27889;SDS011;15238;49.082;9.102;2023-01-06T13:06:05;0.40;;;0.20;;
27889;SDS011;15238;49.082;9.102;2023-01-06T13:08:23;0.10;;;0.08;;
27889;SDS011;15238;49.082;9.102;2023-01-06T13:10:35;0.60;;;0.20;;
27889;SDS011;15238;49.082;9.102;2023-01-06T13:12:52;0.30;;;0.20;;
27889;SDS011;15238;49.082;9.102;2023-01-06T13:17:05;1.23;;;0.50;;
27889;SDS011;15238;49.082;9.102;2023-01-06T13:21:47;0.98;;;0.20;;
27889;SDS011;15238;49.082;9.102;2023-01-06T13:23:55;2.92;;;0.35;;
27889;SDS011;15238;49.082;9.102;2023-01-06T13:29:12;0.20;;;0.20;;
27889;SDS011;15238;49.082;9.102;2023-01-06T13:31:56;1.23;;;0.30;;
27889;SDS011;15238;49.082;9.102;2023-01-06T13:39:33;0.22;;;0.10;;
27889;SDS011;15238;49.082;9.102;2023-01-06T13:41:45;0.65;;;0.20;;
27889;SDS011;15238;49.082;9.102;2023-01-06T13:43:48;0.75;;;0.20;;
27889;SDS011;15238;49.082;9.102;2023-01-06T13:45:52;0.50;;;0.30;;
27889;SDS011;15238;49.082;9.102;2023-01-06T13:47:57;1.35;;;0.30;;
27889;SDS011;15238;49.082;9.102;2023-01-06T13:49:59;0.88;;;0.20;;
27889;SDS011;15238;49.082;9.102;2023-01-06T13:52:00;1.17;;;0.10;;
27889;SDS011;15238;49.082;9.102;2023-01-06T13:54:03;1.13;;;0.30;;
27889;SDS011;15238;49.082;9.102;2023-01-06T14:00:26;0.47;;;0.30;;